International Virtual Aviation Organisation

Eastern Europe and Northern Asia MCD

 
UAOO 110230Z 01005MPS CAVOK 08/01 Q1022 R05/CLRD70 NOSIG RMK QFE755/1007
QNH:(hPa/inHg/mmHg)1022 / 30.18 / 767
QFE:(hPa/inHg/mmHg)1006 / 29.71 / 755
Temperature8
Dew Point1
Visibility> 10000
WeatherCAVOK
Cloud Cover
Transition Height2074 m./7300 ft.
Transition LevelFL80
SQUAWK